Huntington, Wisconsin
Current Conditions -  °F | °C
As of 9:55 PM on Saturday 25 Oct 2014 (Local Time) from KRNH Reporting Station
Clear Clear  
Wind Chill: 39°   Ceiling: Unl
Heat Index: 44°   Visibility: 10mi
Dew Point: 28°   Wind: 7mph
Humidity: 53%   Direction: 270°W
Pressure: 30.04"   Gusts: NA
Location:  45.1804°N, 92.551°W
Report Text: KRNH 260255Z AUTO 27006KT 10SM CLR 06/M02 A3004 RMK AO2 T00641025
Loading
Personal Weather Stations






























Interactive Weather Map
Tropical Storm Tracking
New forecast layout! Learn more

10-Day Weather Forecast

Advertisements
Track Severe Weather on mobile